TAF Text Data
IDs:
Format:
Raw Decoded Include METAR

Data at: 2015 UTC 01 Oct 2022

VDSR 011500Z 07003KT 7000 -RA SCT015 BKN040 26/25 Q1008

TAF VDSR 011700Z 0118/0212 16006KT 9999 SCT017 SCT040
  TEMPO 0206/0211 5000 TSRA SCT015 FEW017CB SCT040